Time;durP1;ratioP1;P1;durP2;ratioP2;P2;SDS_P1;SDS_P2;PMS_P1;PMS_P2;Temp;Humidity;BMP_temperature;BMP_pressure;BME280_temperature;BME280_humidity;BME280_pressure;Samples;Min_cycle;Max_cycle;Signal;HPM_P1;HPM_P2
2022/04/15 09:13:52;;;;;;;12.85;7.10;;;;;;;;;;6180764;23;20029;-88
2022/04/15 09:16:18;;;;;;;10.23;6.60;;;;;;;;;;6156054;23;20100;-87
2022/04/15 09:18:50;;;;;;;14.70;7.22;;;;;;;;;;6131633;23;20040;-87
2022/04/15 09:21:17;;;;;;;9.50;7.07;;;;;;;;;;6155569;23;20017;-88
2022/04/15 09:23:50;;;;;;;16.40;7.95;;;;;;;;;;6155959;23;20348;-87
2022/04/15 09:26:27;;;;;;;16.40;7.10;;;;;;;;;;6157179;23;20009;-87
2022/04/15 09:29:00;;;;;;;14.70;7.65;;;;;;;;;;6155826;23;20389;-88
2022/04/15 09:31:34;;;;;;;11.25;7.03;;;6.30;99.90;;;;;;6158166;23;20454;-87
2022/04/15 09:34:08;;;;;;;12.57;7.15;;;10.00;99.90;;;;;;6182289;23;20013;-88
2022/04/15 09:36:37;;;;;;;15.43;7.25;;;10.10;99.90;;;;;;6180898;23;20147;-87
2022/04/15 09:39:11;;;;;;;15.63;6.75;;;10.10;99.90;;;;;;6177512;23;20100;-88
2022/04/15 09:41:57;;;;;;;13.93;6.78;;;10.10;99.90;;;;;;6180737;23;20023;-89
2022/04/15 09:44:31;;;;;;;14.90;6.95;;;10.20;99.90;;;;;;6159208;23;20025;-88
2022/04/15 09:47:03;;;;;;;15.88;6.95;;;10.30;99.90;;;;;;6155170;23;20028;-89
2022/04/15 09:49:35;;;;;;;12.83;7.20;;;10.30;99.90;;;;;;6185262;23;20446;-90
2022/04/15 09:52:03;;;;;;;17.15;8.30;;;10.30;99.90;;;;;;6180747;23;20578;-88
2022/04/15 09:54:30;;;;;;;16.17;7.35;;;10.40;99.90;;;;;;6156297;23;20013;-87
2022/04/15 09:57:13;;;;;;;17.77;7.13;;;10.40;99.90;;;;;;6154202;23;20024;-90
2022/04/15 09:59:55;;;;;;;14.23;7.60;;;10.40;99.90;;;;;;6160280;23;20070;-88
2022/04/15 10:02:24;;;;;;;12.68;7.30;;;10.40;99.90;;;;;;6180894;23;20020;-88
2022/04/15 10:04:50;;;;;;;11.40;6.95;;;10.40;99.90;;;;;;6155858;23;20104;-88
2022/04/15 10:07:16;;;;;;;12.02;6.93;;;10.60;99.90;;;;;;6156218;23;20021;-88
2022/04/15 10:09:50;;;;;;;18.90;7.90;;;10.70;99.90;;;;;;6156478;23;20036;-88
2022/04/15 10:12:19;;;;;;;10.27;6.85;;;;;;;;;;6180489;23;20013;-89
2022/04/15 10:14:46;;;;;;;8.55;6.80;;;;;;;;;;6155181;23;20402;-88
2022/04/15 10:17:13;;;;;;;9.50;6.10;;;;;;;;;;6153697;23;20067;-88
2022/04/15 10:19:40;;;;;;;9.35;5.82;;;;;;;;;;6154142;23;20017;-88
2022/04/15 10:22:07;;;;;;;14.25;6.03;;;;;;;;;;6153962;23;20104;-87
2022/04/15 10:24:35;;;;;;;9.60;6.32;;;;;;;;;;6157258;23;20021;-88
2022/04/15 10:27:01;;;;;;;10.95;6.57;;;;;;;;;;6153992;23;20081;-89
2022/04/15 10:29:27;;;;;;;17.00;7.55;;;;;;;;;;6156074;23;20013;-88
2022/04/15 10:31:53;;;;;;;12.20;7.40;;;;;;;;;;6154871;23;20366;-86
2022/04/15 10:34:21;;;;;;;12.95;7.70;;;;;;;;;;6156487;23;20443;-90
2022/04/15 10:36:54;;;;;;;14.38;7.53;;;;;;;;;;6156928;23;20013;-88
2022/04/15 10:39:21;;;;;;;11.15;7.70;;;;;;;;;;6155153;23;20398;-89
2022/04/15 10:41:48;;;;;;;18.73;8.23;;;;;;;;;;6154673;23;20271;-90
2022/04/15 10:44:35;;;;;;;14.85;7.72;;;;;;;;;;6155211;23;20013;-89
2022/04/15 10:47:10;;;;;;;12.65;7.22;;;;;;;;;;6154821;23;20013;-90
2022/04/15 10:49:38;;;;;;;12.38;7.75;;;;;;;;;;6154906;23;20143;-88
2022/04/15 10:52:16;;;;;;;10.48;7.47;;;;;;;;;;6155985;23;20016;-88
2022/04/15 10:54:45;;;;;;;13.25;7.60;;;;;;;;;;6153835;23;20473;-88
2022/04/15 10:57:11;;;;;;;14.40;8.27;;;;;;;;;;6156704;23;20017;-89
2022/04/15 11:02:54;;;;;;;13.15;8.05;;;;;;;;;;6180067;23;20021;-89
2022/04/15 11:05:33;;;;;;;14.20;8.25;;;;;;;;;;6155758;23;20055;-89
2022/04/15 11:08:15;;;;;;;11.80;8.15;;;;;;;;;;6158255;23;20073;-90
2022/04/15 11:11:02;;;;;;;13.05;7.82;;;;;;;;;;6155076;23;20013;-91
2022/04/15 11:13:42;;;;;;;13.70;8.35;;;;;;;;;;6155386;23;20021;-90
2022/04/15 11:16:11;;;;;;;13.40;8.20;;;;;;;;;;6160098;23;20024;-90
2022/04/15 11:18:46;;;;;;;12.88;7.50;;;;;;;;;;6154651;23;20016;-90
2022/04/15 11:21:32;;;;;;;11.50;8.57;;;;;;;;;;6155377;23;20017;-90
2022/04/15 11:23:58;;;;;;;12.70;8.80;;;;;;;;;;6152811;23;20881;-89
2022/04/15 11:26:25;;;;;;;14.38;8.70;;;;;;;;;;6155019;23;20442;-91
2022/04/15 11:28:57;;;;;;;17.00;9.05;;;;;;;;;;6154861;23;20009;-90
2022/04/15 11:31:29;;;;;;;12.18;7.85;;;;;;;;;;6157092;23;20013;-88
2022/04/15 11:34:07;;;;;;;14.50;8.48;;;;;;;;;;6155627;23;20092;-90
2022/04/15 11:36:41;;;;;;;15.90;8.68;;;;;;;;;;6155480;23;20466;-89
2022/04/15 11:39:12;;;;;;;15.07;8.50;;;;;;;;;;6154697;23;20052;-88
2022/04/15 11:41:46;;;;;;;9.40;7.82;;;;;;;;;;6157491;23;20013;-89
2022/04/15 11:44:12;;;;;;;14.15;8.48;;;;;;;;;;6155536;23;20052;-89
2022/04/15 11:46:41;;;;;;;15.15;9.25;;;10.90;99.90;;;;;;6156597;23;20120;-89
2022/04/15 11:49:22;;;;;;;14.60;8.98;;;11.20;99.90;;;;;;6155857;23;20013;-89
2022/04/15 11:51:52;;;;;;;15.25;8.90;;;11.20;99.90;;;;;;6179381;23;20017;-89
2022/04/15 11:54:30;;;;;;;10.75;7.95;;;11.20;99.90;;;;;;6153176;23;20067;-88
2022/04/15 11:56:57;;;;;;;15.57;9.15;;;11.10;99.90;;;;;;6177457;23;20040;-89
2022/04/15 11:59:27;;;;;;;15.48;9.27;;;11.00;99.90;;;;;;6178401;23;20024;-89
2022/04/15 12:01:53;;;;;;;11.90;8.45;;;10.90;99.90;;;;;;6178364;23;20013;-90
2022/04/15 12:04:22;;;;;;;14.18;8.77;;;10.90;99.90;;;;;;6152531;23;20635;-89
2022/04/15 12:06:48;;;;;;;11.40;7.50;;;10.90;99.90;;;;;;6154750;23;20760;-89
2022/04/15 12:09:18;;;;;;;15.30;9.20;;;10.90;99.90;;;;;;6153914;23;20020;-88
2022/04/15 12:11:43;;;;;;;16.35;8.57;;;10.90;99.90;;;;;;6178185;23;20017;-90
2022/04/15 12:14:09;;;;;;;16.50;9.43;;;10.80;99.90;;;;;;6152766;23;20044;-90
2022/04/15 12:16:42;;;;;;;15.73;9.07;;;10.70;99.90;;;;;;6177265;23;20035;-91
2022/04/15 12:19:08;;;;;;;;;;;10.70;99.90;;;;;;6175588;23;20421;-90
2022/04/15 12:21:35;;;;;;;19.95;9.77;;;10.70;99.90;;;;;;6153022;23;19912;-90
2022/04/15 12:24:19;;;;;;;16.83;8.98;;;10.70;99.90;;;;;;6177758;23;20020;-90
2022/04/15 12:26:49;;;;;;;15.10;8.52;;;10.60;99.90;;;;;;6176960;23;20013;-89
2022/04/15 12:32:25;;;;;;;11.10;8.98;;;10.50;99.90;;;;;;6176259;23;20017;-91
2022/04/15 12:34:59;;;;;;;11.77;8.32;;;10.50;99.90;;;;;;6175722;23;20021;-90
2022/04/15 12:37:43;;;;;;;12.48;8.35;;;10.50;99.90;;;;;;6153021;23;20017;-90
2022/04/15 12:40:29;;;;;;;13.25;8.48;;;10.50;99.90;;;;;;6153161;23;20017;-89
2022/04/15 12:42:56;;;;;;;13.02;8.48;;;10.40;99.90;;;;;;6178513;23;20059;-90
2022/04/15 12:45:23;;;;;;;13.10;8.15;;;10.50;99.90;;;;;;6177553;23;20017;-89
2022/04/15 12:48:03;;;;;;;10.70;8.13;;;10.40;99.90;;;;;;6178217;23;20012;-90
2022/04/15 12:50:36;;;;;;;11.63;7.47;;;10.50;99.90;;;;;;6153124;23;20013;-89
2022/04/15 12:53:20;;;;;;;10.15;7.85;;;10.50;99.90;;;;;;6177307;23;20013;-89
2022/04/15 12:55:52;;;;;;;11.40;7.93;;;10.40;99.90;;;;;;6179662;23;20091;-89
2022/04/15 12:58:23;;;;;;;10.90;8.20;;;10.40;99.90;;;;;;6179064;23;20019;-88
2022/04/15 13:00:53;;;;;;;9.98;7.78;;;10.50;99.90;;;;;;6176388;23;20383;-88
2022/04/15 13:03:30;;;;;;;11.27;7.80;;;10.50;99.90;;;;;;6177219;23;20017;-88
2022/04/15 13:05:57;;;;;;;11.38;8.00;;;10.60;99.90;;;;;;6178888;23;20509;-88
2022/04/15 13:08:24;;;;;;;10.10;7.97;;;10.50;99.90;;;;;;6179807;23;20016;-89
2022/04/15 13:10:52;;;;;;;12.23;8.63;;;10.40;99.90;;;;;;6179081;23;20649;-90
2022/04/15 13:13:23;;;;;;;13.25;8.10;;;10.40;99.90;;;;;;6182245;23;20071;-89
2022/04/15 13:15:50;;;;;;;14.27;8.98;;;10.30;99.90;;;;;;6155655;23;20087;-88
2022/04/15 13:18:20;;;;;;;14.55;9.63;;;;;;;;;;6180291;23;20059;-89
2022/04/15 13:20:49;;;;;;;10.68;8.57;;;;;;;;;;6156198;23;20528;-89
2022/04/15 13:23:18;;;;;;;14.65;8.57;;;;;;;;;;6156115;23;20016;-89
2022/04/15 13:25:44;;;;;;;12.55;8.25;;;;;;;;;;6156318;23;20017;-88
2022/04/15 13:28:17;;;;;;;12.98;9.25;;;;;;;;;;6156114;23;20488;-90
2022/04/15 13:30:48;;;;;;;16.15;8.43;;;;;;;;;;6154135;23;20067;-88
2022/04/15 13:33:15;;;;;;;14.45;8.68;;;;;;;;;;6155610;23;20084;-89
2022/04/15 13:35:41;;;;;;;16.20;9.38;;;;;;;;;;6153674;23;20020;-88
2022/04/15 13:38:07;;;;;;;17.13;9.27;;;;;;;;;;6154839;23;20015;-88
2022/04/15 13:40:33;;;;;;;14.45;9.15;;;;;;;;;;6154077;23;20048;-89
2022/04/15 13:42:59;;;;;;;14.68;9.15;;;;;;;;;;6151360;23;20013;-88
2022/04/15 13:45:26;;;;;;;15.48;9.85;;;;;;;;;;6153520;23;20028;-88
2022/04/15 13:47:52;;;;;;;14.40;8.38;;;;;;;;;;6155992;23;20092;-88
2022/04/15 13:50:22;;;;;;;11.02;7.93;;;;;;;;;;6154789;23;20009;-88
2022/04/15 13:58:17;;;;;;;14.98;9.40;;;;;;;;;;6158057;23;20028;-89
2022/04/15 14:00:44;;;;;;;13.70;9.05;;;;;;;;;;6154459;23;20017;-87
2022/04/15 14:03:10;;;;;;;15.98;9.70;;;;;;;;;;6153624;23;20017;-89
2022/04/15 14:05:37;;;;;;;13.75;8.43;;;;;;;;;;6153742;23;20052;-89
2022/04/15 14:08:05;;;;;;;12.98;9.25;;;;;;;;;;6153510;23;20096;-89
2022/04/15 14:10:35;;;;;;;13.70;9.13;;;;;;;;;;6155227;23;20013;-88
2022/04/15 14:13:02;;;;;;;13.90;9.32;;;;;;;;;;6155956;23;20378;-88
2022/04/15 14:15:28;;;;;;;11.15;8.10;;;;;;;;;;6155536;23;20013;-88
2022/04/15 14:17:58;;;;;;;15.75;8.48;;;;;;;;;;6154547;23;20035;-87
2022/04/15 14:20:24;;;;;;;14.23;9.10;;;;;;;;;;6154851;23;20013;-90
2022/04/15 14:22:50;;;;;;;18.95;11.25;;;;;;;;;;6155293;23;20415;-90
2022/04/15 14:25:18;;;;;;;17.23;9.70;;;;;;;;;;6154443;23;20017;-89
2022/04/15 14:27:46;;;;;;;14.15;9.10;;;;;;;;;;6153729;23;20016;-89
2022/04/15 14:30:15;;;;;;;12.02;9.80;;;;;;;;;;6154227;23;20020;-90
2022/04/15 14:32:41;;;;;;;16.10;9.27;;;;;;;;;;6154582;23;20091;-89
2022/04/15 14:35:08;;;;;;;15.43;9.57;;;;;;;;;;6156050;23;20027;-90
2022/04/15 14:37:36;;;;;;;14.43;9.85;;;;;;;;;;6153163;23;20021;-90
2022/04/15 14:40:03;;;;;;;13.82;9.00;;;;;;;;;;6152970;23;20028;-90
2022/04/15 14:42:29;;;;;;;12.02;9.57;;;;;;;;;;6152795;23;20013;-90
2022/04/15 14:44:55;;;;;;;11.10;9.00;;;;;;;;;;6154264;23;20013;-89
2022/04/15 14:47:22;;;;;;;12.75;8.80;;;;;;;;;;6154110;23;20009;-89
2022/04/15 14:49:48;;;;;;;14.05;9.35;;;;;;;;;;6152434;23;20788;-89
2022/04/15 14:52:14;;;;;;;15.88;8.95;;;;;;;;;;6152330;23;20009;-90
2022/04/15 14:54:40;;;;;;;14.02;9.05;;;;;;;;;;6153085;23;20020;-90
2022/04/15 14:57:10;;;;;;;17.30;9.00;;;;;;;;;;6155920;23;20384;-89
2022/04/15 14:59:37;;;;;;;14.25;9.10;;;;;;;;;;6158587;23;20450;-89
2022/04/15 15:02:05;;;;;;;15.80;8.95;;;;;;;;;;6152535;23;20585;-89
2022/04/15 15:04:31;;;;;;;12.93;8.80;;;;;;;;;;6153902;23;20178;-90
2022/04/15 15:06:57;;;;;;;15.32;9.63;;;;;;;;;;6151645;23;20013;-90
2022/04/15 15:09:23;;;;;;;13.80;8.40;;;;;;;;;;6155937;23;20044;-90
2022/04/15 15:11:53;;;;;;;13.98;8.13;;;;;;;;;;6155238;23;20073;-89
2022/04/15 15:14:19;;;;;;;11.45;8.10;;;;;;;;;;6155479;23;20020;-89
2022/04/15 15:16:46;;;;;;;15.77;8.77;;;;;;;;;;6154347;23;20076;-89
2022/04/15 15:19:12;;;;;;;12.93;9.13;;;;;;;;;;6153622;23;20013;-90
2022/04/15 15:21:38;;;;;;;18.95;9.85;;;;;;;;;;6157737;23;20089;-90
2022/04/15 15:29:49;;;;;;;12.70;9.55;;;;;;;;;;6179192;23;20459;-88
2022/04/15 15:32:17;;;;;;;15.07;8.88;;;;;;;;;;6153443;23;20009;-88
2022/04/15 15:34:45;;;;;;;14.88;8.98;;;;;;;;;;6154142;23;20107;-89
2022/04/15 15:37:11;;;;;;;14.82;8.38;;;;;;;;;;6152986;23;20016;-89
2022/04/15 15:39:37;;;;;;;17.38;8.80;;;;;;;;;;6154208;23;20021;-88
2022/04/15 15:42:04;;;;;;;14.00;8.77;;;;;;;;;;6153914;23;20128;-86
2022/04/15 15:44:33;;;;;;;10.32;8.02;;;;;;;;;;6153535;23;20462;-89
2022/04/15 15:47:02;;;;;;;11.95;8.63;;;;;;;;;;6154046;23;20096;-88
2022/04/15 15:49:29;;;;;;;13.35;10.02;;;;;;;;;;6154354;23;20016;-89
2022/04/15 15:52:02;;;;;;;16.38;9.60;;;;;;;;;;6155021;23;20131;-89
2022/04/15 15:54:29;;;;;;;13.95;9.10;;;10.30;99.90;;;;;;6154543;23;20039;-89
2022/04/15 15:56:55;;;;;;;16.17;9.10;;;9.60;99.90;;;;;;6179497;23;20441;-89
2022/04/15 15:59:21;;;;;;;14.77;8.70;;;9.50;99.90;;;;;;6180072;23;20024;-90
2022/04/15 16:01:47;;;;;;;13.82;7.95;;;9.60;99.90;;;;;;6155538;23;20055;-89
2022/04/15 16:04:13;;;;;;;16.08;9.23;;;9.60;99.90;;;;;;6154733;23;20013;-89
2022/04/15 16:06:42;;;;;;;14.55;9.38;;;9.60;99.90;;;;;;6181393;23;20023;-89
2022/04/15 16:09:08;;;;;;;23.65;10.85;;;9.60;99.90;;;;;;6178106;23;20063;-89
2022/04/15 16:11:36;;;;;;;16.42;9.75;;;9.60;99.90;;;;;;6130985;23;20064;-88
2022/04/15 16:14:05;;;;;;;13.30;8.00;;;9.60;99.90;;;;;;6154086;23;20087;-89
2022/04/15 16:16:32;;;;;;;17.60;8.43;;;9.60;99.90;;;;;;6154226;23;20048;-90
2022/04/15 16:18:58;;;;;;;14.30;8.70;;;9.50;99.90;;;;;;6152368;23;20447;-89
2022/04/15 16:21:24;;;;;;;17.05;8.70;;;9.50;99.90;;;;;;6177978;23;20016;-90
2022/04/15 16:23:53;;;;;;;16.70;8.35;;;9.50;99.90;;;;;;6179869;23;20447;-88
2022/04/15 16:26:19;;;;;;;14.00;9.15;;;9.40;99.90;;;;;;6179378;23;20020;-88
2022/04/15 16:28:46;;;;;;;16.90;9.25;;;9.40;99.90;;;;;;6153041;23;20450;-89
2022/04/15 16:31:13;;;;;;;15.93;9.23;;;9.40;99.90;;;;;;6155700;23;20013;-90
2022/04/15 16:33:39;;;;;;;16.58;9.20;;;9.30;99.90;;;;;;6155053;23;20017;-87
2022/04/15 16:36:05;;;;;;;22.70;9.40;;;9.40;99.90;;;;;;6154131;23;20013;-91
2022/04/15 16:38:31;;;;;;;20.35;10.75;;;9.30;99.90;;;;;;6154966;23;20342;-89
2022/04/15 16:41:00;;;;;;;16.58;10.05;;;9.30;99.90;;;;;;6158567;23;20024;-90
2022/04/15 16:43:26;;;;;;;15.95;10.10;;;9.30;99.90;;;;;;6157362;23;20021;-89
2022/04/15 16:45:52;;;;;;;17.15;10.32;;;9.30;99.90;;;;;;6130489;23;20016;-89
2022/04/15 16:48:18;;;;;;;23.63;12.85;;;9.20;99.90;;;;;;6158312;23;20040;-89
2022/04/15 16:50:44;;;;;;;23.00;11.40;;;9.20;99.90;;;;;;6115359;23;20013;-88
2022/04/15 16:53:10;;;;;;;18.27;10.30;;;9.20;99.90;;;;;;6163352;23;20067;-89
2022/04/15 16:58:40;;;;;;;21.92;12.30;;;9.20;99.90;;;;;;6188026;23;20017;-89
2022/04/15 17:01:19;;;;;;;17.10;11.57;;;9.10;99.90;;;;;;6161156;23;20920;-87
2022/04/15 17:03:52;;;;;;;20.20;11.13;;;9.10;99.90;;;;;;6130760;23;20017;-87
2022/04/15 17:06:18;;;;;;;;;;;9.10;99.90;;;;;;6140105;23;20032;-90
2022/04/15 17:08:44;;;;;;;21.08;11.13;;;9.10;99.90;;;;;;6133724;23;19912;-89
2022/04/15 17:11:10;;;;;;;21.08;12.98;;;9.10;99.90;;;;;;6106274;23;20087;-89
2022/04/15 17:13:43;;;;;;;21.88;11.55;;;9.00;99.90;;;;;;6130401;23;20449;-89
2022/04/15 17:16:09;;;;;;;22.13;12.05;;;9.00;99.90;;;;;;6150925;23;20017;-90
2022/04/15 17:18:37;;;;;;;18.23;11.15;;;9.00;99.90;;;;;;6151887;23;20048;-90
2022/04/15 17:21:05;;;;;;;23.75;11.43;;;9.00;99.90;;;;;;6151926;23;20009;-89
2022/04/15 17:23:32;;;;;;;24.42;11.63;;;8.90;99.90;;;;;;6150965;23;20016;-89
2022/04/15 17:25:59;;;;;;;24.15;12.95;;;8.90;99.90;;;;;;6154172;23;20740;-89
2022/04/15 17:28:26;;;;;;;25.38;12.63;;;8.90;99.90;;;;;;6155146;23;20071;-89
2022/04/15 17:30:53;;;;;;;21.95;11.57;;;8.90;99.90;;;;;;6154912;23;20036;-89
2022/04/15 17:33:24;;;;;;;20.30;10.75;;;8.90;99.90;;;;;;6154872;23;20378;-89
2022/04/15 17:35:51;;;;;;;19.27;11.25;;;8.90;99.90;;;;;;6153357;23;20013;-90
2022/04/15 17:38:19;;;;;;;14.95;10.07;;;8.90;99.90;;;;;;6153349;23;20378;-87
2022/04/15 17:40:48;;;;;;;21.40;11.10;;;8.90;99.90;;;;;;6154104;23;20028;-89
2022/04/15 17:43:18;;;;;;;19.95;11.90;;;8.80;99.90;;;;;;6132180;23;20016;-89
2022/04/15 17:45:45;;;;;;;24.63;11.27;;;8.80;99.90;;;;;;6154727;23;20459;-89
2022/04/15 17:48:11;;;;;;;19.58;11.32;;;8.80;99.90;;;;;;6153673;23;20092;-88
2022/04/15 17:50:37;;;;;;;19.80;11.32;;;8.80;99.90;;;;;;6154845;23;20696;-90
2022/04/15 17:53:06;;;;;;;23.50;10.55;;;8.70;99.90;;;;;;6154464;23;20012;-89
2022/04/15 17:55:32;;;;;;;21.50;11.55;;;8.70;99.90;;;;;;6154738;23;20075;-89
2022/04/15 17:57:58;;;;;;;20.17;11.10;;;8.70;99.90;;;;;;6155927;23;20017;-89
2022/04/15 18:00:24;;;;;;;21.30;11.45;;;8.70;99.90;;;;;;6153707;23;20020;-89
2022/04/15 18:02:50;;;;;;;18.08;11.35;;;8.70;99.90;;;;;;6107453;23;20013;-89
2022/04/15 18:05:19;;;;;;;27.77;12.55;;;8.70;99.90;;;;;;6128399;23;20021;-90
2022/04/15 18:07:45;;;;;;;19.95;12.10;;;8.70;99.90;;;;;;6150933;23;20013;-89
2022/04/15 18:10:11;;;;;;;21.20;11.02;;;8.70;99.90;;;;;;6153212;23;20015;-88
2022/04/15 18:12:37;;;;;;;19.38;11.70;;;8.70;99.90;;;;;;6152692;23;20079;-89
2022/04/15 18:15:04;;;;;;;21.80;12.13;;;8.70;99.90;;;;;;6153473;23;20049;-89
2022/04/15 18:17:31;;;;;;;19.42;12.43;;;8.70;99.90;;;;;;6153995;23;20071;-88
2022/04/15 18:19:58;;;;;;;23.17;12.02;;;8.70;99.90;;;;;;6154428;23;20017;-89
2022/04/15 18:22:24;;;;;;;22.40;11.80;;;8.70;99.90;;;;;;6153365;23;20569;-90
2022/04/15 18:24:53;;;;;;;25.90;12.60;;;8.70;99.90;;;;;;6130854;23;20481;-90
2022/04/15 18:27:20;;;;;;;18.02;11.48;;;8.70;99.90;;;;;;6104728;23;20109;-89
2022/04/15 18:29:50;;;;;;;23.27;12.43;;;8.60;99.90;;;;;;6131121;23;20021;-89
2022/04/15 18:32:21;;;;;;;23.77;11.82;;;8.60;99.90;;;;;;6155794;23;20016;-89
2022/04/15 18:34:50;;;;;;;22.00;12.38;;;8.60;99.90;;;;;;6130401;23;20497;-90
2022/04/15 18:37:19;;;;;;;25.98;12.70;;;8.60;99.90;;;;;;6155555;23;20023;-90
2022/04/15 18:39:48;;;;;;;24.00;12.32;;;8.60;99.90;;;;;;6131662;23;20020;-90
2022/04/15 18:42:15;;;;;;;18.83;11.25;;;8.60;99.90;;;;;;6155778;23;20012;-89
2022/04/15 18:44:41;;;;;;;19.63;12.45;;;8.60;99.90;;;;;;6153120;23;20014;-89
2022/04/15 18:47:08;;;;;;;18.73;11.25;;;8.60;99.90;;;;;;6128369;23;20073;-89
2022/04/15 18:52:38;;;;;;;20.33;11.88;;;8.60;99.90;;;;;;6160131;23;20025;-89
2022/04/15 18:55:19;;;;;;;16.95;11.30;;;8.60;99.90;;;;;;6156953;23;20405;-90
2022/04/15 18:57:45;;;;;;;18.05;10.55;;;8.60;99.90;;;;;;6136473;23;20024;-89
2022/04/15 19:00:15;;;;;;;19.52;11.10;;;8.60;99.90;;;;;;6132692;23;20024;-89
2022/04/15 19:02:41;;;;;;;21.58;11.15;;;8.60;99.90;;;;;;6155613;23;20473;-89
2022/04/15 19:05:08;;;;;;;16.38;10.85;;;8.50;99.90;;;;;;6131326;23;20013;-90
2022/04/15 19:07:34;;;;;;;22.10;11.77;;;8.50;99.90;;;;;;6106571;23;20013;-89
2022/04/15 19:10:03;;;;;;;18.70;12.57;;;8.50;99.90;;;;;;6156495;23;20048;-89
2022/04/15 19:12:31;;;;;;;22.75;13.90;;;8.60;99.90;;;;;;6156728;23;20017;-89
2022/04/15 19:14:59;;;;;;;25.08;11.65;;;8.50;99.90;;;;;;6131214;23;20024;-90
2022/04/15 19:17:25;;;;;;;27.10;12.48;;;8.50;99.90;;;;;;6131993;23;20017;-89
2022/04/15 19:19:51;;;;;;;20.45;10.93;;;8.50;99.90;;;;;;6156492;23;20017;-89
2022/04/15 19:22:22;;;;;;;21.00;10.57;;;8.50;99.90;;;;;;6157093;23;20408;-89
2022/04/15 19:24:48;;;;;;;20.00;11.40;;;8.50;99.90;;;;;;6106643;23;20020;-89
2022/04/15 19:27:14;;;;;;;19.90;11.05;;;8.50;99.90;;;;;;6107225;23;20017;-88
2022/04/15 19:29:41;;;;;;;21.10;11.73;;;8.50;99.90;;;;;;6156379;23;20013;-89
2022/04/15 19:32:08;;;;;;;17.60;10.85;;;8.50;99.90;;;;;;6132982;23;20013;-89
2022/04/15 19:34:34;;;;;;;18.30;11.10;;;8.50;99.90;;;;;;6156177;23;20024;-90
2022/04/15 19:39:35;;;;;;;21.17;11.65;;;8.50;99.90;;;;;;6149625;23;20026;-90
2022/04/15 19:42:01;;;;;;;17.90;11.00;;;8.50;99.90;;;;;;6103859;23;20021;-89
2022/04/15 19:44:27;;;;;;;18.85;11.32;;;8.50;99.90;;;;;;6077898;23;20053;-89
2022/04/15 19:46:53;;;;;;;16.73;11.43;;;8.50;99.90;;;;;;6055277;23;20040;-90
2022/04/15 19:49:29;;;;;;;18.23;11.40;;;8.50;99.90;;;;;;6062382;23;20522;-90
2022/04/15 19:51:55;;;;;;;17.80;12.02;;;8.50;99.90;;;;;;6101408;23;20016;-89
2022/04/15 19:54:21;;;;;;;18.92;11.80;;;8.50;99.90;;;;;;6080729;23;20028;-89
2022/04/15 20:02:15;;;;;;;19.48;12.70;;;8.50;99.90;;;;;;6109214;23;20017;-89
2022/04/15 20:04:42;;;;;;;18.83;12.10;;;8.50;99.90;;;;;;6106464;23;20319;-91
2022/04/15 20:07:08;;;;;;;19.10;12.07;;;8.50;99.90;;;;;;6104301;23;20009;-90
2022/04/15 20:09:34;;;;;;;20.50;11.88;;;8.50;99.90;;;;;;6107233;23;20068;-90
2022/04/15 20:12:04;;;;;;;18.00;11.77;;;8.50;99.90;;;;;;6083495;23;20017;-90
2022/04/15 20:14:31;;;;;;;20.48;12.63;;;8.50;99.90;;;;;;6107895;23;20018;-89
2022/04/15 20:16:57;;;;;;;19.75;11.52;;;8.50;99.90;;;;;;6109006;23;20020;-90
2022/04/15 20:19:23;;;;;;;25.52;16.17;;;8.50;99.90;;;;;;6108928;23;20069;-90
2022/04/15 20:21:52;;;;;;;25.50;18.55;;;8.50;99.90;;;;;;6083989;23;20017;-90
2022/04/15 20:24:19;;;;;;;32.42;19.42;;;8.50;99.90;;;;;;6083550;23;20017;-90
2022/04/15 20:26:45;;;;;;;19.80;13.00;;;8.50;99.90;;;;;;6109074;23;20041;-90
2022/04/15 20:29:11;;;;;;;23.08;13.75;;;8.50;99.90;;;;;;6108596;23;20014;-90
2022/04/15 20:31:41;;;;;;;20.15;13.15;;;8.50;99.90;;;;;;6109536;23;20013;-90
2022/04/15 20:34:08;;;;;;;17.88;12.55;;;8.50;99.90;;;;;;6109156;23;20013;-90
2022/04/15 20:36:37;;;;;;;16.92;11.75;;;8.50;99.90;;;;;;6108426;23;20017;-91
2022/04/15 20:39:03;;;;;;;18.50;12.38;;;8.50;99.90;;;;;;6107271;23;20017;-91
2022/04/15 20:41:29;;;;;;;19.23;12.18;;;8.50;99.90;;;;;;6085047;23;20092;-90
2022/04/15 20:43:55;;;;;;;15.23;10.73;;;8.50;99.90;;;;;;6108097;23;20017;-90
2022/04/15 20:46:22;;;;;;;16.90;12.45;;;8.50;99.90;;;;;;6083491;23;20367;-90
2022/04/15 20:51:32;;;;;;;18.38;12.02;;;8.50;99.90;;;;;;6109780;23;20474;-90
2022/04/15 20:53:58;;;;;;;16.92;11.52;;;8.50;99.90;;;;;;6061044;23;20391;-91
2022/04/15 20:56:25;;;;;;;19.90;11.93;;;8.50;99.90;;;;;;6108049;23;20025;-90
2022/04/15 20:58:50;;;;;;;19.98;12.98;;;8.50;99.90;;;;;;6107540;23;20092;-89
2022/04/15 21:01:17;;;;;;;19.80;13.10;;;8.50;99.90;;;;;;6107353;23;20454;-90
2022/04/15 21:03:43;;;;;;;19.58;12.43;;;8.50;99.90;;;;;;6107234;23;20056;-90
2022/04/15 21:06:10;;;;;;;18.77;12.35;;;8.50;99.90;;;;;;6107795;23;20009;-90
2022/04/15 21:08:35;;;;;;;19.75;12.25;;;8.50;99.90;;;;;;6085745;23;20088;-90
2022/04/15 21:11:01;;;;;;;19.23;12.60;;;8.50;99.90;;;;;;6082465;23;20447;-90
2022/04/15 21:13:27;;;;;;;18.75;12.63;;;8.50;99.90;;;;;;6108927;23;20020;-90
2022/04/15 21:15:53;;;;;;;17.35;12.30;;;8.50;99.90;;;;;;6106080;23;20016;-90
2022/04/15 21:18:19;;;;;;;19.70;13.77;;;8.50;99.90;;;;;;6107983;23;20632;-90
2022/04/15 21:20:45;;;;;;;23.50;13.75;;;8.50;99.90;;;;;;6080965;23;20465;-90
2022/04/15 21:23:11;;;;;;;20.40;13.93;;;8.50;99.90;;;;;;6083294;23;20010;-90
2022/04/15 21:25:37;;;;;;;21.35;14.02;;;8.50;99.90;;;;;;6057579;23;20080;-90
2022/04/15 21:28:03;;;;;;;26.65;14.57;;;8.50;99.90;;;;;;6059962;23;20071;-91
2022/04/15 21:30:29;;;;;;;18.25;13.60;;;8.50;99.90;;;;;;6105720;23;20017;-90
2022/04/15 21:32:55;;;;;;;19.35;12.77;;;8.50;99.90;;;;;;6108172;23;20096;-90
2022/04/15 21:35:21;;;;;;;26.50;14.57;;;8.50;99.90;;;;;;6107381;23;20023;-90
2022/04/15 21:37:47;;;;;;;24.65;16.42;;;8.50;99.90;;;;;;6081508;23;20021;-90
2022/04/15 21:40:14;;;;;;;22.08;14.05;;;8.50;99.90;;;;;;6056976;23;20481;-90
2022/04/15 21:42:40;;;;;;;24.70;18.33;;;8.60;99.90;;;;;;6082440;23;20477;-90
2022/04/15 21:45:09;;;;;;;25.70;18.73;;;8.50;99.90;;;;;;6079287;23;20021;-90
2022/04/15 21:47:35;;;;;;;24.08;15.55;;;8.50;99.90;;;;;;6104768;23;20014;-91
2022/04/15 21:50:02;;;;;;;26.20;15.60;;;8.50;99.90;;;;;;6080713;23;20069;-91
2022/04/15 21:52:32;;;;;;;24.80;15.25;;;8.50;99.90;;;;;;6055888;23;20020;-90
2022/04/15 21:55:10;;;;;;;27.48;15.60;;;8.50;99.90;;;;;;6103659;23;20045;-90
2022/04/15 21:57:36;;;;;;;26.00;14.55;;;8.50;99.90;;;;;;6126791;23;20017;-90
2022/04/15 22:00:10;;;;;;;23.10;14.25;;;8.50;99.90;;;;;;6057166;23;20387;-90
2022/04/15 22:02:36;;;;;;;22.88;15.27;;;8.50;99.90;;;;;;6103507;23;20028;-91
2022/04/15 22:05:02;;;;;;;24.85;15.77;;;8.50;99.90;;;;;;6103708;23;20049;-90
2022/04/15 22:07:30;;;;;;;24.85;15.02;;;8.50;99.90;;;;;;6100979;23;20055;-90
2022/04/15 22:09:56;;;;;;;22.65;15.20;;;8.50;99.90;;;;;;6077767;23;20013;-91
2022/04/15 22:12:22;;;;;;;22.15;15.18;;;8.50;99.90;;;;;;6101047;23;20028;-90
2022/04/15 22:14:48;;;;;;;27.13;15.27;;;8.50;99.90;;;;;;6093347;23;20024;-90
2022/04/15 22:17:17;;;;;;;25.20;15.55;;;8.50;99.90;;;;;;6096945;23;20578;-91
2022/04/15 22:19:52;;;;;;;26.92;16.65;;;8.50;99.90;;;;;;6093286;23;20052;-91
2022/04/15 22:22:18;;;;;;;24.20;16.25;;;8.50;99.90;;;;;;6092610;23;20068;-90
2022/04/15 22:24:46;;;;;;;23.70;15.30;;;8.50;99.90;;;;;;6072958;23;20076;-90
2022/04/15 22:27:13;;;;;;;26.42;16.55;;;8.50;99.90;;;;;;6121806;23;20066;-90
2022/04/15 22:29:40;;;;;;;25.48;16.27;;;8.50;99.90;;;;;;6094111;23;20326;-90
2022/04/15 22:32:07;;;;;;;29.00;17.88;;;8.50;99.90;;;;;;6101062;23;20017;-90
2022/04/15 22:34:34;;;;;;;28.20;16.77;;;8.50;99.90;;;;;;6101470;23;20024;-89
2022/04/15 22:37:01;;;;;;;56.15;44.15;;;8.40;99.90;;;;;;6102416;23;20510;-90
2022/04/15 22:39:27;;;;;;;34.95;22.77;;;8.40;99.90;;;;;;6078503;23;20017;-90
2022/04/15 22:41:53;;;;;;;29.48;18.50;;;8.30;99.90;;;;;;6053794;23;20060;-90
2022/04/15 22:44:22;;;;;;;28.33;18.52;;;8.20;99.90;;;;;;6127981;23;20017;-90
2022/04/15 22:46:50;;;;;;;27.88;18.40;;;;;;;;;;6079395;23;20010;-91
2022/04/15 22:49:17;;;;;;;28.92;18.88;;;;;;;;;;6100445;23;20359;-89
2022/04/15 22:51:43;;;;;;;29.08;17.85;;;;;;;;;;6101820;23;20593;-90
2022/04/15 22:57:07;;;;;;;25.60;17.60;;;;;;;;;;6101849;23;20450;-90
2022/04/15 22:57:08;;;;;;;31.23;18.27;;;;;;;;;;6121734;23;20100;-90
2022/04/15 22:59:40;;;;;;;25.38;17.63;;;;;;;;;;6099427;23;20088;-90
2022/04/15 23:02:07;;;;;;;30.38;18.98;;;;;;;;;;6100264;23;20022;-90
2022/04/15 23:04:35;;;;;;;33.50;18.77;;;;;;;;;;6099620;23;20172;-90
2022/04/15 23:07:05;;;;;;;30.08;18.50;;;;;;;;;;6100155;23;20443;-88